Time;durP1;ratioP1;P1;durP2;ratioP2;P2;SDS_P1;SDS_P2;PMS_P1;PMS_P2;Temp;Humidity;BMP_temperature;BMP_pressure;BME280_temperature;BME280_humidity;BME280_pressure;Samples;Min_cycle;Max_cycle;Signal;HPM_P1;HPM_P2
2022/01/28 00:04:51;;;;;;;0.10;0.10;;;4.60;99.90;;;;;;5063481;28;20025;-73
2022/01/28 00:07:17;;;;;;;0.10;0.10;;;4.30;99.90;;;;;;5063572;28;20357;-73
2022/01/28 00:09:43;;;;;;;0.10;0.10;;;4.40;99.90;;;;;;5065753;28;20028;-74
2022/01/28 00:12:11;;;;;;;0.10;0.10;;;4.40;99.90;;;;;;5069655;28;20021;-73
2022/01/28 00:38:34;;;;;;;0.10;0.10;;;4.50;99.90;;;;;;5067219;28;20063;-72
2022/01/28 00:41:00;;;;;;;0.10;0.10;;;4.50;99.90;;;;;;5070558;28;20073;-76
2022/01/28 00:43:25;;;;;;;0.10;0.10;;;4.50;99.90;;;;;;5078163;28;20372;-76
2022/01/28 00:45:51;;;;;;;0.10;0.10;;;4.50;99.90;;;;;;5086379;28;20040;-76
2022/01/28 00:48:17;;;;;;;0.10;0.10;;;4.60;99.90;;;;;;5072565;28;20370;-76
2022/01/28 00:50:43;;;;;;;0.30;0.30;;;4.60;99.90;;;;;;5070916;28;20027;-75
2022/01/28 00:53:09;;;;;;;0.10;0.10;;;4.60;99.90;;;;;;5068388;28;20421;-75
2022/01/28 00:55:35;;;;;;;0.10;0.10;;;4.60;99.90;;;;;;5069134;28;20025;-76
2022/01/28 00:58:01;;;;;;;0.10;0.10;;;4.60;99.90;;;;;;5072271;28;20107;-77
2022/01/28 01:00:26;;;;;;;0.10;0.10;;;4.60;99.90;;;;;;5066523;28;20108;-76
2022/01/28 01:02:52;;;;;;;0.15;0.15;;;4.60;99.90;;;;;;5074880;28;20062;-76
2022/01/28 01:05:18;;;;;;;0.10;0.10;;;4.60;99.90;;;;;;5071498;28;20035;-75
2022/01/28 01:07:43;;;;;;;0.10;0.10;;;4.50;99.90;;;;;;5072989;28;20367;-72
2022/01/28 01:10:10;;;;;;;0.75;0.52;;;4.50;99.90;;;;;;5084618;28;20036;-75
2022/01/28 01:12:41;;;;;;;0.10;0.10;;;4.50;99.90;;;;;;5080534;28;20039;-73
2022/01/28 01:15:08;;;;;;;0.10;0.10;;;4.50;99.90;;;;;;5074299;28;20027;-73
2022/01/28 01:17:39;;;;;;;0.85;0.85;;;4.40;99.90;;;;;;5085699;28;20059;-73
2022/01/28 01:20:32;;;;;;;0.10;0.10;;;4.60;99.90;;;;;;5067892;28;20071;-73
2022/01/28 01:25:29;;;;;;;0.10;0.10;;;4.40;99.90;;;;;;5072543;28;20052;-73
2022/01/28 01:27:57;;;;;;;0.10;0.10;;;4.40;99.90;;;;;;5073587;28;20528;-73
2022/01/28 01:30:27;;;;;;;0.10;0.10;;;4.30;99.90;;;;;;5062828;28;20050;-73
2022/01/28 01:32:53;;;;;;;0.10;0.10;;;4.30;99.90;;;;;;5072452;28;20482;-73
2022/01/28 01:35:18;;;;;;;0.10;0.10;;;4.20;99.90;;;;;;5072241;28;20058;-73
2022/01/28 01:37:44;;;;;;;0.10;0.10;;;4.20;99.90;;;;;;5070331;28;20385;-72
2022/01/28 01:40:11;;;;;;;0.10;0.10;;;4.10;99.90;;;;;;5063694;28;20036;-75
2022/01/28 01:42:50;;;;;;;0.10;0.10;;;4.00;99.90;;;;;;5072559;28;20052;-73
2022/01/28 01:53:42;;;;;;;0.10;0.10;;;4.00;99.90;;;;;;5072468;28;20038;-74
2022/01/28 01:56:08;;;;;;;0.10;0.10;;;3.90;99.90;;;;;;5072503;28;20024;-73
2022/01/28 01:58:35;;;;;;;0.05;0.05;;;3.90;99.90;;;;;;5060206;28;20021;-74
2022/01/28 02:01:01;;;;;;;0.10;0.10;;;3.90;99.90;;;;;;5071612;28;20035;-74
2022/01/28 02:03:29;;;;;;;0.10;0.10;;;3.90;99.90;;;;;;5055509;28;20039;-73
2022/01/28 02:05:57;;;;;;;0.10;0.10;;;3.80;99.90;;;;;;5060995;28;20498;-73
2022/01/28 02:08:29;;;;;;;0.10;0.10;;;3.80;99.90;;;;;;5062119;28;20043;-74
2022/01/28 02:10:57;;;;;;;0.10;0.10;;;3.70;99.90;;;;;;5054404;28;20024;-72
2022/01/28 02:13:28;;;;;;;0.10;0.10;;;3.70;99.90;;;;;;5072085;28;20056;-73
2022/01/28 02:15:55;;;;;;;0.10;0.10;;;3.70;99.90;;;;;;5058613;28;20033;-73
2022/01/28 02:18:22;;;;;;;0.10;0.10;;;3.60;99.90;;;;;;5051860;28;20075;-73
2022/01/28 02:20:52;;;;;;;0.10;0.10;;;3.70;99.90;;;;;;5071451;28;20032;-73
2022/01/28 02:23:20;;;;;;;0.10;0.10;;;3.60;99.90;;;;;;5072101;28;20048;-73
2022/01/28 02:25:47;;;;;;;0.10;0.10;;;3.60;99.90;;;;;;5078769;28;20035;-73
2022/01/28 02:28:15;;;;;;;0.10;0.10;;;3.60;99.90;;;;;;5071524;28;20052;-73
2022/01/28 02:30:41;;;;;;;0.10;0.10;;;3.50;99.90;;;;;;5071781;28;20055;-73
2022/01/28 02:35:38;;;;;;;0.10;0.10;;;3.50;99.90;;;;;;5057282;28;20174;-73
2022/01/28 02:38:03;;;;;;;0.10;0.10;;;3.50;99.90;;;;;;5061446;28;20077;-74
2022/01/28 02:40:29;;;;;;;0.10;0.10;;;3.40;99.90;;;;;;5052198;28;20029;-73
2022/01/28 02:43:00;;;;;;;0.10;0.10;;;3.40;99.90;;;;;;5073558;28;20065;-74
2022/01/28 02:45:34;;;;;;;0.10;0.10;;;3.50;99.90;;;;;;5071081;28;20111;-73
2022/01/28 02:48:08;;;;;;;0.10;0.10;;;3.50;99.90;;;;;;5047754;28;20416;-74
2022/01/28 02:50:42;;;;;;;0.10;0.10;;;3.50;99.90;;;;;;5058464;28;20017;-73
2022/01/28 02:53:08;;;;;;;0.10;0.10;;;3.50;99.90;;;;;;5075435;28;20049;-73
2022/01/28 02:55:39;;;;;;;0.10;0.10;;;3.50;99.90;;;;;;5056286;28;20499;-72
2022/01/28 02:58:20;;;;;;;0.10;0.10;;;3.50;99.90;;;;;;5073627;28;20028;-73
2022/01/28 03:00:47;;;;;;;0.10;0.10;;;3.40;99.90;;;;;;5056282;28;20024;-72
2022/01/28 03:03:18;;;;;;;0.10;0.10;;;3.40;99.90;;;;;;5071419;28;20033;-72
2022/01/28 03:05:47;;;;;;;0.38;0.38;;;3.50;99.90;;;;;;5053063;28;20074;-73
2022/01/28 03:08:13;;;;;;;0.10;0.10;;;3.50;99.90;;;;;;5078063;28;20020;-72
2022/01/28 03:10:44;;;;;;;0.10;0.10;;;3.50;99.90;;;;;;5070043;28;20020;-73
2022/01/28 03:13:17;;;;;;;0.10;0.10;;;3.40;99.90;;;;;;5071165;28;20039;-73
2022/01/28 03:15:51;;;;;;;0.10;0.10;;;3.50;99.90;;;;;;5071276;28;20371;-73
2022/01/28 03:18:25;;;;;;;;;;;3.50;99.90;;;;;;5066698;28;20047;-73
2022/01/28 03:23:19;;;;;;;0.10;0.10;;;3.60;99.90;;;;;;5081028;28;20436;-73
2022/01/28 03:25:46;;;;;;;0.10;0.10;;;3.50;99.90;;;;;;5075220;28;20025;-73
2022/01/28 03:28:13;;;;;;;0.43;0.43;;;3.50;99.90;;;;;;5070467;28;20036;-74
2022/01/28 03:30:39;;;;;;;0.10;0.10;;;3.50;99.90;;;;;;5070489;28;20013;-73
2022/01/28 03:33:05;;;;;;;0.10;0.10;;;3.60;99.90;;;;;;5052591;28;21203;-74
2022/01/28 03:35:32;;;;;;;0.10;0.10;;;3.60;99.90;;;;;;5069639;28;20032;-73
2022/01/28 03:38:02;;;;;;;0.10;0.10;;;3.60;99.90;;;;;;5068491;28;20028;-74
2022/01/28 03:40:35;;;;;;;0.17;0.17;;;3.70;99.90;;;;;;5072069;28;20630;-74
2022/01/28 03:43:01;;;;;;;0.10;0.10;;;3.80;99.90;;;;;;5067429;28;20398;-74
2022/01/28 03:45:27;;;;;;;0.10;0.10;;;3.80;99.90;;;;;;5069913;28;20037;-73
2022/01/28 03:47:53;;;;;;;0.10;0.10;;;3.90;99.90;;;;;;5071483;28;20033;-74
2022/01/28 03:50:18;;;;;;;0.10;0.10;;;3.90;99.90;;;;;;5100351;22;20052;-82
2022/01/28 03:52:44;;;;;;;0.10;0.10;;;4.00;99.90;;;;;;5078485;28;20512;-82
2022/01/28 03:55:10;;;;;;;0.10;0.10;;;4.00;99.90;;;;;;5058067;28;20112;-82
2022/01/28 03:57:35;;;;;;;1.98;1.88;;;4.00;99.90;;;;;;5069001;28;20428;-82
2022/01/28 04:00:03;;;;;;;0.10;0.10;;;4.00;99.90;;;;;;5055522;28;20020;-82
2022/01/28 04:02:32;;;;;;;0.10;0.10;;;4.00;99.90;;;;;;5069828;28;20070;-83
2022/01/28 04:12:53;;;;;;;0.10;0.10;;;4.00;99.90;;;;;;5070747;28;20543;-82
2022/01/28 04:17:59;;;;;;;0.10;0.10;;;4.00;99.90;;;;;;5077809;28;20035;-83
2022/01/28 04:20:25;;;;;;;0.20;0.20;;;3.90;99.90;;;;;;5072982;28;20042;-84
2022/01/28 04:22:50;;;;;;;0.10;0.10;;;3.90;99.90;;;;;;5070521;28;20029;-83
2022/01/28 04:25:16;;;;;;;3.92;3.63;;;3.80;99.90;;;;;;5051347;28;20562;-83
2022/01/28 04:27:42;;;;;;;0.10;0.10;;;3.80;99.90;;;;;;5069994;28;20509;-82
2022/01/28 04:30:08;;;;;;;0.10;0.10;;;3.90;99.90;;;;;;5070468;28;20390;-84
2022/01/28 04:32:35;;;;;;;0.10;0.10;;;3.80;99.90;;;;;;5080408;28;20037;-83
2022/01/28 04:35:01;;;;;;;0.10;0.10;;;3.70;99.90;;;;;;5054777;28;20025;-83
2022/01/28 04:56:18;;;;;;;0.10;0.10;;;3.70;99.90;;;;;;5070160;28;20043;-83
2022/01/28 04:58:56;;;;;;;0.10;0.10;;;3.70;99.90;;;;;;5066400;28;20074;-82
2022/01/28 05:06:47;;;;;;;0.10;0.10;;;3.70;99.90;;;;;;5066202;28;20474;-83
2022/01/28 05:15:11;;;;;;;0.10;0.10;;;3.60;99.90;;;;;;5079505;28;20032;-82
2022/01/28 05:26:01;;;;;;;0.10;0.10;;;3.50;99.90;;;;;;5066131;28;20035;-83
2022/01/28 05:28:27;;;;;;;0.10;0.10;;;3.40;99.90;;;;;;5062505;28;20062;-82
2022/01/28 05:30:52;;;;;;;0.03;0.03;;;3.40;99.90;;;;;;5048509;28;20060;-82
2022/01/28 05:33:18;;;;;;;0.10;0.10;;;3.40;99.90;;;;;;5064743;28;20024;-82
2022/01/28 05:35:44;;;;;;;0.10;0.10;;;3.40;99.90;;;;;;5067982;28;20172;-82
2022/01/28 05:38:10;;;;;;;0.10;0.10;;;3.40;99.90;;;;;;5067766;28;20118;-83
2022/01/28 05:40:35;;;;;;;0.10;0.10;;;3.40;99.90;;;;;;5068063;28;20538;-83
2022/01/28 05:43:01;;;;;;;0.10;0.10;;;3.30;99.90;;;;;;5068866;28;20477;-82
2022/01/28 05:45:27;;;;;;;0.10;0.10;;;3.30;99.90;;;;;;5067652;28;20473;-82
2022/01/28 05:47:52;;;;;;;0.10;0.10;;;3.30;99.90;;;;;;5069499;28;20060;-83
2022/01/28 05:50:18;;;;;;;0.05;0.05;;;3.20;99.90;;;;;;5067414;28;20108;-83
2022/01/28 05:52:44;;;;;;;0.10;0.10;;;3.20;99.90;;;;;;5067711;28;20025;-83
2022/01/28 05:55:09;;;;;;;0.10;0.10;;;3.30;99.90;;;;;;5069964;28;20078;-83
2022/01/28 05:57:35;;;;;;;0.10;0.10;;;3.30;99.90;;;;;;5071113;28;20036;-82
2022/01/28 06:00:01;;;;;;;0.10;0.10;;;3.20;99.90;;;;;;5064340;28;20025;-83
2022/01/28 06:02:26;;;;;;;0.10;0.10;;;3.20;99.90;;;;;;5070546;28;20109;-84
2022/01/28 06:04:52;;;;;;;0.10;0.10;;;3.20;99.90;;;;;;5064037;28;20052;-83
2022/01/28 06:07:20;;;;;;;0.10;0.10;;;3.20;99.90;;;;;;5065130;28;20550;-82
2022/01/28 06:09:46;;;;;;;0.10;0.10;;;3.20;99.90;;;;;;5062196;28;20020;-82
2022/01/28 06:12:11;;;;;;;0.10;0.10;;;3.20;99.90;;;;;;5074712;28;20040;-82
2022/01/28 06:14:37;;;;;;;0.10;0.10;;;3.20;99.90;;;;;;5069176;28;20025;-83
2022/01/28 06:17:03;;;;;;;0.10;0.10;;;3.20;99.90;;;;;;5069499;28;20032;-84
2022/01/28 06:19:29;;;;;;;0.10;0.10;;;3.20;99.90;;;;;;5066544;28;20032;-84
2022/01/28 06:21:54;;;;;;;0.10;0.10;;;3.20;99.90;;;;;;5062443;28;20047;-84
2022/01/28 06:24:20;;;;;;;0.10;0.10;;;3.20;99.90;;;;;;5049872;28;20035;-83
2022/01/28 06:26:47;;;;;;;0.10;0.10;;;3.20;99.90;;;;;;5069649;28;20397;-83
2022/01/28 06:29:13;;;;;;;0.10;0.10;;;3.30;99.90;;;;;;5067507;28;20027;-83
2022/01/28 06:31:39;;;;;;;0.10;0.10;;;3.30;99.90;;;;;;5058626;28;20020;-83
2022/01/28 06:34:04;;;;;;;0.10;0.10;;;3.30;99.90;;;;;;5065479;28;20021;-83
2022/01/28 06:36:30;;;;;;;0.28;0.28;;;3.30;99.90;;;;;;5067153;28;20043;-84
2022/01/28 06:38:56;;;;;;;0.10;0.10;;;3.20;99.90;;;;;;5067157;28;20107;-85
2022/01/28 06:41:22;;;;;;;0.20;0.20;;;3.20;99.90;;;;;;5069908;28;20392;-84
2022/01/28 06:43:47;;;;;;;0.10;0.10;;;3.20;99.90;;;;;;5045966;28;20032;-84
2022/01/28 06:46:13;;;;;;;0.10;0.10;;;3.20;99.90;;;;;;5045817;28;20025;-84
2022/01/28 06:48:38;;;;;;;2.38;1.35;;;3.20;99.90;;;;;;5070434;28;20020;-84
2022/01/28 06:51:04;;;;;;;0.10;0.10;;;3.20;99.90;;;;;;5070431;28;20035;-84
2022/01/28 06:53:30;;;;;;;0.10;0.10;;;3.30;99.90;;;;;;5067850;28;20029;-70
2022/01/28 06:55:55;;;;;;;0.10;0.10;;;3.40;99.90;;;;;;5070106;28;20036;-70
2022/01/28 06:58:21;;;;;;;0.10;0.10;;;3.50;99.90;;;;;;5067816;28;20016;-77
2022/01/28 07:00:47;;;;;;;0.40;0.40;;;3.50;99.90;;;;;;5068554;28;20386;-77
2022/01/28 07:03:16;;;;;;;0.10;0.10;;;3.40;99.90;;;;;;5070132;28;20428;-77
2022/01/28 07:05:42;;;;;;;0.10;0.10;;;3.30;99.90;;;;;;5060994;28;20427;-76
2022/01/28 07:08:08;;;;;;;0.10;0.10;;;3.30;99.90;;;;;;5054611;28;20017;-75
2022/01/28 07:10:34;;;;;;;0.10;0.10;;;3.20;99.90;;;;;;5063619;28;20024;-77
2022/01/28 07:13:00;;;;;;;0.10;0.10;;;3.10;99.90;;;;;;5060791;28;20074;-76
2022/01/28 07:15:27;;;;;;;0.10;0.10;;;3.30;99.90;;;;;;5059652;28;20028;-76
2022/01/28 07:17:54;;;;;;;0.30;0.30;;;3.70;99.90;;;;;;5052945;28;20047;-77
2022/01/28 07:20:20;;;;;;;0.10;0.10;;;3.10;99.90;;;;;;5063792;28;20028;-77
2022/01/28 07:22:45;;;;;;;0.10;0.10;;;3.10;99.90;;;;;;5065464;28;20032;-76
2022/01/28 07:25:11;;;;;;;0.10;0.10;;;3.10;99.90;;;;;;5063718;28;20037;-76
2022/01/28 07:27:37;;;;;;;0.10;0.10;;;3.20;99.90;;;;;;5060992;28;20111;-77
2022/01/28 07:30:04;;;;;;;0.10;0.10;;;3.10;99.90;;;;;;5064964;28;21891;-76
2022/01/28 07:32:29;;;;;;;0.10;0.10;;;3.20;99.90;;;;;;5067036;28;20046;-78
2022/01/28 07:34:55;;;;;;;0.10;0.10;;;3.20;99.90;;;;;;5065413;28;20108;-78
2022/01/28 07:37:21;;;;;;;0.10;0.10;;;3.30;99.90;;;;;;5064720;28;20415;-78
2022/01/28 07:39:46;;;;;;;0.10;0.10;;;3.30;99.90;;;;;;5042727;28;20024;-77
2022/01/28 07:42:12;;;;;;;0.10;0.10;;;3.40;99.90;;;;;;5067925;28;20064;-78
2022/01/28 07:44:38;;;;;;;0.22;0.22;;;3.50;99.90;;;;;;5065951;28;20047;-77
2022/01/28 07:47:04;;;;;;;0.10;0.10;;;3.50;99.90;;;;;;5062261;28;20144;-77
2022/01/28 07:49:30;;;;;;;0.10;0.10;;;3.60;99.90;;;;;;5066409;28;20075;-78
2022/01/28 07:51:56;;;;;;;0.10;0.10;;;3.60;99.90;;;;;;5063988;28;20052;-79
2022/01/28 07:54:22;;;;;;;0.10;0.10;;;3.70;99.90;;;;;;5051563;28;20033;-78
2022/01/28 07:56:52;;;;;;;0.10;0.10;;;3.70;99.90;;;;;;5062217;28;20027;-77
2022/01/28 07:59:18;;;;;;;0.10;0.10;;;3.70;99.90;;;;;;5062459;28;20021;-77
2022/01/28 08:01:43;;;;;;;0.10;0.10;;;3.80;99.90;;;;;;5064225;28;20031;-78
2022/01/28 08:04:09;;;;;;;0.10;0.10;;;3.90;99.90;;;;;;5055776;28;20035;-77
2022/01/28 08:06:35;;;;;;;0.10;0.10;;;3.90;99.90;;;;;;5064732;28;20052;-79
2022/01/28 08:09:01;;;;;;;0.10;0.10;;;4.40;99.90;;;;;;5066827;28;20548;-77
2022/01/28 08:11:26;;;;;;;0.10;0.10;;;4.00;99.90;;;;;;5064756;28;20036;-74
2022/01/28 08:13:52;;;;;;;0.10;0.10;;;4.00;99.90;;;;;;5068768;28;20413;-78
2022/01/28 08:16:18;;;;;;;0.73;0.73;;;4.00;99.90;;;;;;5064567;28;20247;-77
2022/01/28 08:18:43;;;;;;;0.10;0.10;;;4.00;99.90;;;;;;5061243;28;20035;-78
2022/01/28 08:21:09;;;;;;;0.10;0.10;;;4.10;99.90;;;;;;5064442;28;20025;-77
2022/01/28 08:23:36;;;;;;;0.10;0.10;;;4.10;99.90;;;;;;5065750;28;20035;-78
2022/01/28 08:26:02;;;;;;;0.10;0.10;;;4.10;99.90;;;;;;5063046;28;20078;-77
2022/01/28 08:28:28;;;;;;;0.10;0.10;;;4.20;99.90;;;;;;5061199;28;20230;-76
2022/01/28 08:30:54;;;;;;;0.10;0.10;;;4.30;99.90;;;;;;5064501;28;20103;-77
2022/01/28 08:33:20;;;;;;;1.83;1.75;;;4.40;99.90;;;;;;5059700;28;20542;-75
2022/01/28 08:35:51;;;;;;;0.10;0.10;;;4.40;99.90;;;;;;5064507;28;20142;-75
2022/01/28 08:38:24;;;;;;;0.10;0.10;;;4.50;99.90;;;;;;5066272;28;20394;-76
2022/01/28 08:40:51;;;;;;;0.10;0.10;;;4.50;99.90;;;;;;5065989;28;20052;-75
2022/01/28 08:43:16;;;;;;;0.10;0.10;;;4.50;99.90;;;;;;5063178;28;20524;-76
2022/01/28 08:45:42;;;;;;;1.13;1.13;;;4.50;99.90;;;;;;5065515;28;20040;-77
2022/01/28 08:48:07;;;;;;;0.10;0.10;;;4.50;99.90;;;;;;5062064;28;20028;-76
2022/01/28 08:50:33;;;;;;;0.00;0.00;;;4.60;99.90;;;;;;5060680;28;20031;-76
2022/01/28 08:52:59;;;;;;;0.10;0.10;;;4.60;99.90;;;;;;5044496;28;20120;-76
2022/01/28 08:55:25;;;;;;;0.10;0.10;;;4.70;99.90;;;;;;5065588;28;20021;-76
2022/01/28 08:57:51;;;;;;;0.10;0.10;;;4.70;99.90;;;;;;5066026;28;20028;-75
2022/01/28 09:00:18;;;;;;;0.10;0.10;;;4.70;99.90;;;;;;5065625;28;20032;-76
2022/01/28 09:02:43;;;;;;;0.10;0.10;;;4.70;99.90;;;;;;5063994;28;20036;-76
2022/01/28 09:05:09;;;;;;;0.10;0.10;;;4.70;99.90;;;;;;5063504;28;20138;-76
2022/01/28 09:07:35;;;;;;;0.10;0.10;;;5.30;99.90;;;;;;5066467;28;20336;-75
2022/01/28 09:10:10;;;;;;;0.10;0.10;;;4.70;99.90;;;;;;5064716;28;20159;-75
2022/01/28 09:12:46;;;;;;;0.10;0.10;;;4.90;99.90;;;;;;5064329;28;20103;-78
2022/01/28 09:15:12;;;;;;;0.10;0.10;;;4.80;99.90;;;;;;5065691;28;20037;-78
2022/01/28 09:17:38;;;;;;;0.10;0.10;;;4.90;99.90;;;;;;5062763;28;20082;-77
2022/01/28 09:20:04;;;;;;;0.32;0.32;;;4.90;99.90;;;;;;5065572;28;20505;-77
2022/01/28 09:22:30;;;;;;;0.15;0.15;;;5.00;99.90;;;;;;5068277;28;20107;-77
2022/01/28 09:24:55;;;;;;;0.10;0.10;;;5.10;99.90;;;;;;5067840;28;20154;-77
2022/01/28 09:27:21;;;;;;;0.10;0.10;;;5.30;99.90;;;;;;5071616;28;20028;-77
2022/01/28 09:29:47;;;;;;;0.10;0.10;;;5.20;99.90;;;;;;5071348;28;20016;-77
2022/01/28 09:32:13;;;;;;;0.10;0.10;;;5.30;99.90;;;;;;5070925;28;20581;-77
2022/01/28 09:34:38;;;;;;;0.10;0.10;;;5.20;99.90;;;;;;5065987;28;20025;-77
2022/01/28 09:37:04;;;;;;;0.10;0.10;;;5.20;99.90;;;;;;5048452;28;20032;-77
2022/01/28 09:39:32;;;;;;;0.10;0.10;;;5.40;99.90;;;;;;5068807;28;20028;-76
2022/01/28 09:42:02;;;;;;;0.10;0.10;;;5.60;99.90;;;;;;5060345;28;20047;-78
2022/01/28 09:44:33;;;;;;;0.10;0.10;;;5.80;99.90;;;;;;5070060;28;20517;-77
2022/01/28 09:46:59;;;;;;;0.40;0.40;;;5.90;99.90;;;;;;5070911;28;20032;-77
2022/01/28 09:49:26;;;;;;;0.00;0.00;;;5.90;99.90;;;;;;5063913;28;20484;-77
2022/01/28 09:51:52;;;;;;;0.10;0.10;;;5.90;99.90;;;;;;5077970;22;20056;-80
2022/01/28 09:54:18;;;;;;;0.10;0.10;;;6.10;99.90;;;;;;5070393;28;20340;-81
2022/01/28 09:56:43;;;;;;;0.25;0.25;;;6.10;99.90;;;;;;5067488;28;20118;-81
2022/01/28 09:59:09;;;;;;;0.10;0.10;;;6.20;99.90;;;;;;5062130;28;20032;-79
2022/01/28 10:01:35;;;;;;;0.10;0.10;;;6.30;99.90;;;;;;5068855;28;20106;-80
2022/01/28 10:04:06;;;;;;;0.10;0.10;;;6.20;99.90;;;;;;5068016;28;20052;-81
2022/01/28 10:06:32;;;;;;;0.10;0.10;;;6.20;99.90;;;;;;5073377;28;20020;-80
2022/01/28 10:09:01;;;;;;;0.10;0.10;;;6.20;99.90;;;;;;5078623;28;20031;-81
2022/01/28 10:11:27;;;;;;;0.10;0.10;;;6.30;99.90;;;;;;5067768;28;20008;-79
2022/01/28 10:13:56;;;;;;;0.10;0.10;;;6.30;99.90;;;;;;5092474;28;20223;-80
2022/01/28 10:16:24;;;;;;;0.10;0.10;;;6.30;99.90;;;;;;5083477;28;20025;-79
2022/01/28 10:18:55;;;;;;;0.10;0.10;;;6.20;99.90;;;;;;5075114;28;20024;-79
2022/01/28 10:21:38;;;;;;;0.10;0.10;;;6.20;99.90;;;;;;5091302;28;20005;-80
2022/01/28 10:24:12;;;;;;;;;;;6.20;99.90;;;;;;5074345;28;20049;-80
2022/01/28 10:26:50;;;;;;;0.10;0.10;;;6.30;99.90;;;;;;5073962;28;20029;-80
2022/01/28 10:29:30;;;;;;;0.10;0.10;;;6.40;99.90;;;;;;5070112;28;20013;-80
2022/01/28 10:32:05;;;;;;;0.10;0.10;;;6.40;99.90;;;;;;5051741;28;20024;-80
2022/01/28 10:34:36;;;;;;;0.10;0.10;;;6.40;99.90;;;;;;5066044;28;20044;-80
2022/01/28 10:37:15;;;;;;;0.10;0.10;;;6.10;99.90;;;;;;5071329;28;20028;-80
2022/01/28 10:39:54;;;;;;;0.10;0.10;;;6.10;99.90;;;;;;5068705;28;20442;-81
2022/01/28 10:42:33;;;;;;;5.60;5.05;;;6.10;99.90;;;;;;5072437;28;20025;-81
2022/01/28 10:45:14;;;;;;;0.10;0.10;;;6.10;99.90;;;;;;5067604;28;20021;-81
2022/01/28 10:47:48;;;;;;;0.10;0.10;;;6.40;99.90;;;;;;5074094;28;20104;-77
2022/01/28 10:50:34;;;;;;;0.10;0.10;;;6.40;99.90;;;;;;5073960;28;20034;-78
2022/01/28 10:53:10;;;;;;;0.10;0.10;;;6.60;99.90;;;;;;5074998;28;20114;-77
2022/01/28 10:55:43;;;;;;;0.10;0.10;;;6.50;99.90;;;;;;5070387;28;20044;-78
2022/01/28 10:58:14;;;;;;;0.10;0.10;;;6.50;99.90;;;;;;5071392;28;20035;-77
2022/01/28 11:00:52;;;;;;;0.10;0.10;;;6.60;99.90;;;;;;5070033;28;20032;-77
2022/01/28 11:03:25;;;;;;;0.10;0.10;;;6.70;99.90;;;;;;5070212;28;20068;-78
2022/01/28 11:05:52;;;;;;;0.10;0.10;;;6.60;99.90;;;;;;5069196;28;20028;-76
2022/01/28 11:08:17;;;;;;;0.40;0.40;;;6.80;99.90;;;;;;5075506;28;20024;-76
2022/01/28 11:10:43;;;;;;;0.10;0.10;;;6.70;99.90;;;;;;5067731;28;20398;-78
2022/01/28 11:13:10;;;;;;;0.10;0.10;;;6.60;99.90;;;;;;5074151;28;20016;-76
2022/01/28 11:15:35;;;;;;;0.10;0.10;;;6.60;99.90;;;;;;5073149;28;20565;-75
2022/01/28 11:18:04;;;;;;;0.10;0.10;;;6.50;99.90;;;;;;5076973;28;20107;-76
2022/01/28 11:20:54;;;;;;;0.10;0.10;;;6.40;99.90;;;;;;5073213;28;20029;-74
2022/01/28 11:24:01;;;;;;;0.10;0.10;;;6.40;99.90;;;;;;5067648;28;20054;-74
2022/01/28 11:26:35;;;;;;;0.10;0.10;;;6.40;99.90;;;;;;5069300;28;20039;-76
2022/01/28 11:29:17;;;;;;;0.10;0.10;;;6.40;99.90;;;;;;5058932;28;20063;-76
2022/01/28 11:31:44;;;;;;;0.10;0.10;;;6.80;99.90;;;;;;5060655;28;20021;-75
2022/01/28 11:34:23;;;;;;;0.10;0.10;;;6.90;99.90;;;;;;5069719;28;20121;-74
2022/01/28 11:36:50;;;;;;;0.00;0.00;;;6.90;99.90;;;;;;5065062;28;20027;-74
2022/01/28 11:39:20;;;;;;;0.10;0.10;;;6.70;99.90;;;;;;5067656;28;20031;-74
2022/01/28 11:42:06;;;;;;;0.10;0.10;;;6.70;99.90;;;;;;5054827;28;20045;-74
2022/01/28 11:44:51;;;;;;;0.05;0.05;;;6.60;99.90;;;;;;5064812;28;20109;-73
2022/01/28 11:47:28;;;;;;;0.10;0.10;;;6.60;99.90;;;;;;5059962;28;20047;-73
2022/01/28 11:50:14;;;;;;;0.13;0.13;;;6.70;99.90;;;;;;5066538;28;20052;-74
2022/01/28 11:52:45;;;;;;;0.10;0.10;;;6.90;99.90;;;;;;5071516;28;20842;-73
2022/01/28 11:55:14;;;;;;;0.10;0.10;;;6.90;99.90;;;;;;5063118;28;20029;-74
2022/01/28 11:57:58;;;;;;;0.10;0.10;;;6.80;99.90;;;;;;5069058;28;20032;-76
2022/01/28 12:00:31;;;;;;;0.10;0.10;;;6.70;99.90;;;;;;5065384;28;20074;-74
2022/01/28 12:02:57;;;;;;;0.10;0.10;;;6.50;99.90;;;;;;5062188;28;20044;-74
2022/01/28 12:05:31;;;;;;;0.10;0.10;;;6.40;99.90;;;;;;5062584;28;20021;-73
2022/01/28 12:08:03;;;;;;;0.10;0.10;;;6.30;99.90;;;;;;5068121;28;20078;-74
2022/01/28 12:10:31;;;;;;;0.10;0.10;;;6.30;99.90;;;;;;5070894;28;20021;-74
2022/01/28 12:13:00;;;;;;;0.10;0.10;;;6.30;99.90;;;;;;5064585;28;20017;-74
2022/01/28 12:15:31;;;;;;;0.10;0.10;;;6.40;99.90;;;;;;5064189;28;20021;-74
2022/01/28 12:18:14;;;;;;;0.10;0.10;;;6.20;99.90;;;;;;5067444;28;20028;-74
2022/01/28 12:20:46;;;;;;;0.10;0.10;;;6.40;99.90;;;;;;5066154;28;20398;-73
2022/01/28 12:23:11;;;;;;;0.10;0.10;;;6.30;99.90;;;;;;5062456;28;20024;-74
2022/01/28 12:25:37;;;;;;;0.10;0.10;;;6.30;99.90;;;;;;5062090;28;20031;-74
2022/01/28 12:28:19;;;;;;;0.10;0.10;;;6.50;99.90;;;;;;5051689;28;20024;-74
2022/01/28 12:30:51;;;;;;;0.10;0.10;;;6.70;99.90;;;;;;5066302;28;20025;-74
2022/01/28 12:33:24;;;;;;;0.10;0.10;;;6.90;99.90;;;;;;5068289;28;20020;-74
2022/01/28 12:35:53;;;;;;;0.10;0.10;;;7.10;99.90;;;;;;5065991;28;20033;-75
2022/01/28 12:38:25;;;;;;;0.00;0.00;;;7.20;99.90;;;;;;5056254;28;20024;-74
2022/01/28 12:40:53;;;;;;;0.10;0.10;;;7.20;99.90;;;;;;5060380;28;20111;-74
2022/01/28 12:43:21;;;;;;;0.10;0.10;;;7.00;99.90;;;;;;5039332;28;20386;-74
2022/01/28 12:48:22;;;;;;;0.10;0.10;;;6.70;99.90;;;;;;5409572;22;20036;-71
2022/01/28 12:50:55;;;;;;;0.20;0.20;;;6.70;99.90;;;;;;5074788;28;20400;-71
2022/01/28 12:53:35;;;;;;;0.10;0.10;;;6.70;99.90;;;;;;5082685;28;20400;-71
2022/01/28 12:56:04;;;;;;;11.05;9.63;;;6.70;99.90;;;;;;5078652;28;20043;-75
2022/01/28 12:58:37;;;;;;;0.90;0.63;;;6.80;99.90;;;;;;5048241;28;20042;-70
2022/01/28 13:01:06;;;;;;;0.10;0.10;;;6.70;99.90;;;;;;5064098;28;20044;-71
2022/01/28 13:03:37;;;;;;;0.65;0.65;;;6.70;99.90;;;;;;5081179;22;20057;-74
2022/01/28 13:06:26;;;;;;;0.10;0.10;;;6.70;99.90;;;;;;5049983;28;20043;-75
2022/01/28 13:08:53;;;;;;;0.10;0.10;;;6.80;99.90;;;;;;5066814;28;20037;-75
2022/01/28 13:11:19;;;;;;;0.10;0.10;;;6.70;99.90;;;;;;5065588;28;20025;-73
2022/01/28 13:13:50;;;;;;;0.10;0.10;;;6.80;99.90;;;;;;5066890;28;20063;-73
2022/01/28 13:16:27;;;;;;;0.10;0.10;;;7.00;99.90;;;;;;5069502;28;20037;-73
2022/01/28 13:18:57;;;;;;;0.10;0.10;;;7.20;99.90;;;;;;5069360;28;20091;-74
2022/01/28 13:21:23;;;;;;;0.10;0.10;;;7.10;99.90;;;;;;5070882;28;20024;-73
2022/01/28 13:24:02;;;;;;;0.10;0.10;;;7.00;99.90;;;;;;5071348;28;20511;-74
2022/01/28 13:26:28;;;;;;;9.07;3.60;;;6.90;99.90;;;;;;5071006;28;20046;-74
2022/01/28 13:29:08;;;;;;;0.10;0.10;;;6.70;99.90;;;;;;5067423;28;20029;-74
2022/01/28 13:31:36;;;;;;;0.57;0.57;;;6.40;99.90;;;;;;5073562;28;20103;-75
2022/01/28 13:34:05;;;;;;;0.10;0.10;;;6.30;99.90;;;;;;5067189;28;20028;-74
2022/01/28 13:36:48;;;;;;;0.10;0.10;;;6.40;99.90;;;;;;5064642;28;20029;-73
2022/01/28 13:39:19;;;;;;;0.10;0.10;;;6.20;99.90;;;;;;5071357;28;20029;-75
2022/01/28 13:41:50;;;;;;;0.10;0.10;;;6.50;99.90;;;;;;5073089;28;20086;-74
2022/01/28 13:44:26;;;;;;;0.10;0.10;;;6.60;99.90;;;;;;5073093;28;20028;-74
2022/01/28 13:47:00;;;;;;;0.10;0.10;;;6.50;99.90;;;;;;5070730;28;20454;-75
2022/01/28 13:49:37;;;;;;;0.10;0.10;;;6.40;99.90;;;;;;5070390;28;20058;-75
2022/01/28 13:52:13;;;;;;;0.28;0.28;;;6.60;99.90;;;;;;5070991;28;20016;-75
2022/01/28 13:54:39;;;;;;;0.10;0.10;;;6.70;99.90;;;;;;5080802;28;20071;-75
2022/01/28 13:57:06;;;;;;;0.10;0.10;;;7.00;99.90;;;;;;5060428;28;20032;-73
2022/01/28 13:59:34;;;;;;;0.10;0.10;;;7.00;99.90;;;;;;5074674;28;20071;-73
2022/01/28 14:02:03;;;;;;;0.10;0.10;;;7.00;99.90;;;;;;5053105;28;20093;-74
2022/01/28 14:04:35;;;;;;;0.10;0.10;;;6.80;99.90;;;;;;5070036;28;20478;-74
2022/01/28 14:07:19;;;;;;;0.20;0.20;;;6.60;99.90;;;;;;5066810;28;20059;-73
2022/01/28 14:09:57;;;;;;;0.10;0.10;;;6.40;99.90;;;;;;5063884;28;20023;-74
2022/01/28 14:12:35;;;;;;;0.10;0.10;;;6.50;99.90;;;;;;5046426;28;20025;-74
2022/01/28 14:15:14;;;;;;;0.10;0.10;;;6.00;99.90;;;;;;5065426;28;20063;-74
2022/01/28 14:17:41;;;;;;;0.10;0.10;;;6.20;99.90;;;;;;5073871;28;20039;-75
2022/01/28 14:20:08;;;;;;;0.10;0.10;;;6.10;99.90;;;;;;5049946;28;20147;-74
2022/01/28 14:22:34;;;;;;;0.30;0.30;;;6.00;99.90;;;;;;5070085;28;20111;-74
2022/01/28 14:25:00;;;;;;;0.10;0.10;;;6.20;99.90;;;;;;5068874;28;20127;-74
2022/01/28 14:29:55;;;;;;;0.10;0.10;;;6.40;99.90;;;;;;5068936;28;20081;-73
2022/01/28 14:32:23;;;;;;;0.10;0.10;;;6.60;99.90;;;;;;5067867;28;20044;-74
2022/01/28 14:34:51;;;;;;;0.10;0.10;;;6.80;99.90;;;;;;5069717;28;20486;-74
2022/01/28 14:37:18;;;;;;;0.43;0.43;;;7.00;99.90;;;;;;5064042;28;20033;-74
2022/01/28 14:39:44;;;;;;;0.10;0.10;;;7.10;99.90;;;;;;5062067;28;20146;-74
2022/01/28 14:42:12;;;;;;;0.38;0.38;;;6.90;99.90;;;;;;5068549;28;20412;-74
2022/01/28 14:44:40;;;;;;;0.10;0.10;;;6.70;99.90;;;;;;5067432;28;20039;-72